Main page
METAR-TAF:

METAR-TAF

Airports :

Tri-County Regional Airport

Lone Rock, Wisconsin, United States

latitude: 43-12-43N, longitude: 090-10-53W, elevation: 718 ft

Current weather observation

The report was made 59 minutes ago, at 20:56 UTC
Wind 15 mph from the South/Southwest with gusts up to 24 mph
Temperature 52°F
Humidity 32%
Pressure 29.99 in. Hg
Visibility: 10 miles
Scattered clouds at a height of 4400 ft

METAR: KLNR 012056Z AUTO 21013G21KT 10SM SCT044 11/M05 A2999 RMK AO2 SLP154 T01061050 56020

Time: 15:55 (21:55 UTC)


TAF: missing

Weather observations and forecasts of more than 4000 airports (METAR and TAF reports).

The available stations are represented by yellow and red dots on the map.

Hover mouse over dot to see the name of the station.

Then click to see weather observations and forecasts.

To change the map : click on the green buttons with a black cross to zoom in, on the green button with a dash to zoom out, or on the green arrows for adjacent maps.


METAR-TAF: